N172DE KILG-KTEB
Flight info
| Callsign | N172DE |
|---|---|
| Flight time | N/A |
| Altitude | 3500 |
| Route | VFR NORTH EAST |
| Aircraft | C172/L-VGD/C |
Departure
| Time | 2026-04-29 01:47 |
|---|---|
| Airport | Wilmington Airport (KILG) |
Arrival
| Time | N/A |
|---|---|
| Airport | Teterboro Airport (KTEB) |
| Time | Latitude | Longitude | Altitude | Speed | Heading |
|---|---|---|---|---|---|
| 2026-04-29 01:39 | 39.67242 | -75.60815 | 72 ft | 0 kts | 270° |
| 2026-04-29 01:43 | 39.67248 | -75.60849 | 72 ft | 11 kts | 287° |
| 2026-04-29 01:44 | 39.67276 | -75.61017 | 72 ft | 19 kts | 304° |
| 2026-04-29 01:44 | 39.67312 | -75.61056 | 72 ft | 12 kts | 230° |
| 2026-04-29 01:44 | 39.67342 | -75.61121 | 72 ft | 4 kts | 54° |
| 2026-04-29 01:44 | 39.67402 | -75.61028 | 72 ft | 18 kts | 25° |
| 2026-04-29 01:45 | 39.67522 | -75.61129 | 72 ft | 25 kts | 310° |
| 2026-04-29 01:45 | 39.67642 | -75.61273 | 72 ft | 19 kts | 4° |
| 2026-04-29 01:45 | 39.67705 | -75.61188 | 72 ft | 8 kts | 125° |
| 2026-04-29 01:45 | 39.67693 | -75.61169 | 72 ft | 15 kts | 129° |
| 2026-04-29 01:46 | 39.67504 | -75.60887 | 86 ft | 59 kts | 134° |
| 2026-04-29 01:46 | 39.67218 | -75.60468 | 270 ft | 61 kts | 132° |
| 2026-04-29 01:46 | 39.66945 | -75.60078 | 490 ft | 56 kts | 134° |
| 2026-04-29 01:46 | 39.66674 | -75.59660 | 626 ft | 64 kts | 132° |
| 2026-04-29 01:47 | 39.66365 | -75.59309 | 817 ft | 60 kts | 181° |
| 2026-04-29 01:47 | 39.66029 | -75.59734 | 937 ft | 74 kts | 225° |
| 2026-04-29 01:47 | 39.65713 | -75.60281 | 1053 ft | 77 kts | 236° |
| 2026-04-29 01:47 | 39.65924 | -75.60942 | 1085 ft | 100 kts | 319° |
| 2026-04-29 01:48 | 39.66521 | -75.61580 | 1046 ft | 115 kts | 315° |
| 2026-04-29 01:48 | 39.67061 | -75.62347 | 1141 ft | 112 kts | 309° |
| 2026-04-29 01:48 | 39.67597 | -75.63129 | 1110 ft | 120 kts | 309° |
| 2026-04-29 01:48 | 39.68241 | -75.63680 | 1246 ft | 112 kts | 7° |
| 2026-04-29 01:49 | 39.68940 | -75.63178 | 1140 ft | 119 kts | 45° |
| 2026-04-29 01:49 | 39.69581 | -75.62518 | 1162 ft | 116 kts | 39° |
| 2026-04-29 01:49 | 39.70258 | -75.62009 | 1253 ft | 111 kts | 18° |
| 2026-04-29 01:49 | 39.71036 | -75.61726 | 1198 ft | 116 kts | 35° |
| 2026-04-29 01:50 | 39.71719 | -75.61278 | 1330 ft | 108 kts | 20° |
| 2026-04-29 01:50 | 39.72481 | -75.61115 | 1389 ft | 108 kts | 4° |
| 2026-04-29 01:50 | 39.73266 | -75.61243 | 1350 ft | 116 kts | 348° |
| 2026-04-29 01:50 | 39.74038 | -75.61473 | 1515 ft | 111 kts | 346° |
| 2026-04-29 01:51 | 39.74771 | -75.61706 | 1698 ft | 106 kts | 345° |
| 2026-04-29 01:51 | 39.75461 | -75.61932 | 1940 ft | 96 kts | 343° |
| 2026-04-29 01:51 | 39.76076 | -75.62138 | 2180 ft | 86 kts | 342° |
| 2026-04-29 01:51 | 39.76618 | -75.62320 | 2415 ft | 76 kts | 339° |
| 2026-04-29 01:52 | 39.77089 | -75.62483 | 2641 ft | 64 kts | 335° |
| 2026-04-29 01:52 | 39.77412 | -75.62856 | 2771 ft | 59 kts | 272° |
| 2026-04-29 01:52 | 39.77799 | -75.63209 | 2821 ft | 83 kts | 355° |
| 2026-04-29 01:52 | 39.78414 | -75.63236 | 2897 ft | 94 kts | 352° |
| 2026-04-29 01:53 | 39.79097 | -75.63329 | 2964 ft | 102 kts | 349° |
| 2026-04-29 01:53 | 39.79841 | -75.63481 | 2987 ft | 112 kts | 346° |
| 2026-04-29 01:53 | 39.80640 | -75.63687 | 2981 ft | 119 kts | 345° |